METAR AND TAF INFORMATION
METAR FOR LEBL
ADDS - METARS form results

(0720 UTC 23 April 2018)
Data provider http://aviationweather.gov/adds/metars/
 
METAR text: LEBL 230700Z 32006KT 280V360 CAVOK 16/09 Q1019 NOSIG
Conditions at: LEBL (BARCELONA AIRPOR, ES) observed 0700 UTC 23 April 2018
Temperature: 16.0°C (61°F)
Dewpoint: 9.0°C (48°F) [RH = 63%]
Pressure (altimeter): 30.09 inches Hg (1019.0 mb)
Winds: from the NW (320 degrees) at 7 MPH (6 knots; 3.1 m/s)
Visibility: 6 or more miles (10+ km)
Ceiling: ceiling and visibility are OK
Clouds: unknown
Weather: no significant weather observed at this time

METAR text: LEBL 230630Z 32005KT 280V020 CAVOK 15/09 Q1018 NOSIG
Conditions at: LEBL (BARCELONA AIRPOR, ES) observed 0630 UTC 23 April 2018
Temperature: 15.0°C (59°F)
Dewpoint: 9.0°C (48°F) [RH = 67%]
Pressure (altimeter): 30.06 inches Hg (1018.0 mb)
Winds: from the NW (320 degrees) at 6 MPH (5 knots; 2.6 m/s)
Visibility: 6 or more miles (10+ km)
Ceiling: ceiling and visibility are OK
Clouds: unknown
Weather: no significant weather observed at this time

Forecast for: LEBL (BARCELONA AIRPOR, ES)
Text: TAF LEBL 230500Z 2306/2406 33006KT 9999 FEW040 TX22/2312Z TN13/2406Z
Forecast period: 0600 UTC 23 April 2018 to 0600 UTC 24 April 2018
Forecast type: FROM: standard forecast or significant change
Winds: from the NNW (330 degrees) at 7 MPH (6 knots; 3.1 m/s)
Visibility: 6 or more miles (10+ km)
Clouds: few clouds at 4000 feet AGL
Weather: no significant weather forecast for this period
Forecast for: LEBL (BARCELONA AIRPOR, ES)
Text: TAF LEBL 230500Z 2306/2406 33006KT 9999 FEW040 TX22/2312Z TN13/2406Z
Forecast period: 0600 UTC 23 April 2018 to 0600 UTC 24 April 2018
Forecast type: FROM: standard forecast or significant change
Winds: from the NNW (330 degrees) at 7 MPH (6 knots; 3.1 m/s)
Visibility: 6 or more miles (10+ km)
Clouds: few clouds at 4000 feet AGL
Weather: no significant weather forecast for this period
Forecast for: LEBL (BARCELONA AIRPOR, ES)
Text: TAF LEBL 230500Z 2306/2406 33006KT 9999 FEW040 TX22/2312Z TN13/2406Z
Forecast period: 0600 to 1700 UTC 23 April 2018
Forecast type: BECOMING: Conditions expected to become as follows by 0800 UTC 23 April 2018
Winds: from the SSE (160 degrees) at 8 MPH (7 knots; 3.6 m/s)
Visibility: 6 or more miles (10+ km)
Clouds: few clouds at 4000 feet AGL
Weather: no significant weather forecast for this period
Forecast for: LEBL (BARCELONA AIRPOR, ES)
Text: TAF LEBL 230500Z 2306/2406 33006KT 9999 FEW040 TX22/2312Z TN13/2406Z
Forecast period: 0600 to 1700 UTC 23 April 2018
Forecast type: BECOMING: Conditions expected to become as follows by 0800 UTC 23 April 2018
Winds: from the SSE (160 degrees) at 8 MPH (7 knots; 3.6 m/s)
Visibility: 6 or more miles (10+ km)
Clouds: few clouds at 4000 feet AGL
Weather: no significant weather forecast for this period
Forecast for: LEBL (BARCELONA AIRPOR, ES)
Text: TAF LEBL 230500Z 2306/2406 33006KT 9999 FEW040 TX22/2312Z TN13/2406Z
Forecast period: 1700 UTC 23 April 2018 to 0000 UTC 24 April 2018
Forecast type: BECOMING: Conditions expected to become as follows by 1900 UTC 23 April 2018
Winds: from the NE (50 degrees) at 6 MPH (5 knots; 2.6 m/s)
Visibility: 6 or more miles (10+ km)
Clouds: few clouds at 4000 feet AGL
Weather: no significant weather forecast for this period
Forecast for: LEBL (BARCELONA AIRPOR, ES)
Text: TAF LEBL 230500Z 2306/2406 33006KT 9999 FEW040 TX22/2312Z TN13/2406Z
Forecast period: 1700 UTC 23 April 2018 to 0000 UTC 24 April 2018
Forecast type: BECOMING: Conditions expected to become as follows by 1900 UTC 23 April 2018
Winds: from the NE (50 degrees) at 6 MPH (5 knots; 2.6 m/s)
Visibility: 6 or more miles (10+ km)
Clouds: few clouds at 4000 feet AGL
Weather: no significant weather forecast for this period
Forecast for: LEBL (BARCELONA AIRPOR, ES)
Text: TAF LEBL 230500Z 2306/2406 33006KT 9999 FEW040 TX22/2312Z TN13/2406Z
Forecast period: 0000 to 0600 UTC 24 April 2018
Forecast type: BECOMING: Conditions expected to become as follows by 0300 UTC 24 April 2018
Winds: from the NNW (330 degrees) at 6 MPH (5 knots; 2.6 m/s)
Visibility: 6 or more miles (10+ km)
Clouds: few clouds at 4000 feet AGL
Weather: no significant weather forecast for this period
Forecast for: LEBL (BARCELONA AIRPOR, ES)
Text: TAF LEBL 230500Z 2306/2406 33006KT 9999 FEW040 TX22/2312Z TN13/2406Z
Forecast period: 0000 to 0600 UTC 24 April 2018
Forecast type: BECOMING: Conditions expected to become as follows by 0300 UTC 24 April 2018
Winds: from the NNW (330 degrees) at 6 MPH (5 knots; 2.6 m/s)
Visibility: 6 or more miles (10+ km)
Clouds: few clouds at 4000 feet AGL
Weather: no significant weather forecast for this period

 AIRPORT MAP

 RUNWAY INFORMATION
Runway 02 Runway length 8333 ft Runway width 148 ft
Runway elevation 7 ft Runway displaced threshold 131 ft Runway heading 19
Runway 20 Runway length 8333 ft Runway width 148 ft
Runway elevation 12 ft Runway displaced threshold 0 ft Runway heading 199
Runway 07L Runway length 11654 ft Runway width 148 ft
Runway elevation 8 ft Runway displaced threshold 295 ft Runway heading 66
Runway 25R Runway length 11654 ft Runway width 148 ft
Runway elevation 10 ft Runway displaced threshold 0 ft Runway heading 246
Runway 07R Runway length 8727 ft Runway width 197 ft
Runway elevation 8 ft Runway displaced threshold 0 ft Runway heading 66
Runway 25L Runway length 8727 ft Runway width 197 ft
Runway elevation 8 ft Runway displaced threshold 0 ft Runway heading 246

 AIRPORT FREQUENCIES
Type APP Name APP Frequency 119.1 MHZ
Type ATIS Name ATIS Frequency 118.65 MHZ
Type CLD Name CLNC DEL Frequency 121.8 MHZ
Type GND Name GND Frequency 121.65 MHZ
Type TWR Name TWR Frequency 118.1 MHZ

 AIRPORT NEAR NAVIGATION AIDS
Type VOR-DME Name Barcelona Frequency 116700 KHZ
Type VOR-DME Name El Prat Frequency 114300 KHZ
Type VOR-DME Name Sabadell Frequency 112000 KHZ
Type NDB Name Villanueva Frequency 380 KHZ



Air Greece virtual AIrline - All rights reserved 2018 - Powered by Virtual Airlines Manager [v2.6.2]